Carnival Liberty — HPYE — position and weather

sailwx.info

Track history (hours):
 
Tides and Currents Weather Stations Pressure Air Temp Water Temp Dewpoint Dewpoint Depression Visibility Wind Speed Wind Dir Waves Ship Positions

Carnival Liberty

Last reported at 2018-Apr-20 10:00 UTC. Time now 2018-Apr-20 12:45 UTC.
Position N 25°48' W 077°42'.

Type: Passenger vessel. MMSI: 371083000.

Wind from 140 at 12 knots

Barometer 1014.9 mb
Air temperature 24.0 ° C
Visibility: greater than 10.8 NM
Dewpoint 21.0 ° C
Water temperature 26.0 ° C

Date/timePositionNaut miles runAvg speedWind from/ knotsBaromVisibWave heightAir tempDewpointWater temp
2018-Apr-20 10:00N 25°48' W 077°42'22210.6 140 / 121014.910.8 24.021.026.0
2018-Apr-19 13:02N 28°25' W 080°38'0 0.0
2018-Apr-19 12:44N 28°25' W 080°38'0 0.0
2018-Apr-19 12:26N 28°25' W 080°38'0 0.0
2018-Apr-19 11:59N 28°25' W 080°38'0 0.0
2018-Apr-19 11:26N 28°25' W 080°38'0 0.0
2018-Apr-19 10:32N 28°25' W 080°38'0 0.6
2018-Apr-19 10:24N 28°25' W 080°38'2 4.6
2018-Apr-19 10:00N 28°25' W 080°36'611.2
2018-Apr-19 09:26N 28°21' W 080°30'4 8.3
2018-Apr-19 09:00N 28°19' W 080°26'10 8.7
2018-Apr-19 07:55N 28°13' W 080°18'4 9.9
2018-Apr-19 07:30N 28°10' W 080°15'5 9.8
2018-Apr-19 07:00N 28°07' W 080°10'5 9.7
2018-Apr-19 06:30N 28°04' W 080°06'5 9.7
2018-Apr-19 06:00N 28°01' W 080°02'510.6
2018-Apr-19 05:30N 27°57' W 079°57'610.8
2018-Apr-19 04:59N 27°54' W 079°52'511.0
2018-Apr-19 04:30N 27°50' W 079°48'611.2
2018-Apr-19 03:58N 27°46' W 079°43'15310.7
2018-Apr-18 13:41N 25°54' W 077°47'211.6
2018-Apr-18 13:29N 25°53' W 077°44'611.8
2018-Apr-18 12:59N 25°50' W 077°38'38 4.9
2018-Apr-18 05:22N 25°21' W 077°13'67 2.7
2018-Apr-17 04:28N 25°33' W 075°60'  
2018-Apr-14 20:29N 26°36' W 079°25'611.4
2018-Apr-14 19:59N 26°30' W 079°24'611.8
2018-Apr-14 19:29N 26°24' W 079°26'612.0
2018-Apr-14 18:59N 26°18' W 079°27'611.9
2018-Apr-14 18:31N 26°13' W 079°28'510.0
2018-Apr-14 18:00N 26°09' W 079°24'  
2018-Apr-11 17:57N 26°32' W 079°25'4 8.4
2018-Apr-11 17:27N 26°27' W 079°25'4 8.8
2018-Apr-11 17:00N 26°24' W 079°26'510.5
2018-Apr-11 16:29N 26°18' W 079°27'714.7
2018-Apr-11 16:00N 26°11' W 079°29'611.2
2018-Apr-11 15:29N 26°09' W 079°23'77 9.4
2018-Apr-11 07:13N 25°59' W 077°58'2 7.7
2018-Apr-11 07:00N 25°58' W 077°56'4 7.6
2018-Apr-11 06:29N 25°57' W 077°52'4 7.5
2018-Apr-11 06:00N 25°55' W 077°48'4 8.0
2018-Apr-11 05:30N 25°54' W 077°44'  
Track history (hours):
 
Tides and Currents Weather Stations Pressure Air Temp Water Temp Dewpoint Dewpoint Depression Visibility Wind Speed Wind Dir Waves Ship Positions

Carnival Liberty

Last reported at 2018-Apr-20 10:00 UTC. Time now 2018-Apr-20 12:45 UTC.
Position N 25°48' W 077°42'.

Type: Passenger vessel. MMSI: 371083000.

Wind from 140 at 12 knots

Barometer 1014.9 mb
Air temperature 24.0 ° C
Visibility: greater than 10.8 NM
Dewpoint 21.0 ° C
Water temperature 26.0 ° C

Date/timePositionNaut miles runAvg speedWind from/ knotsBaromVisibWave heightAir tempDewpointWater temp
2018-Apr-20 10:00N 25°48' W 077°42'22210.6 140 / 121014.910.8 24.021.026.0
2018-Apr-19 13:02N 28°25' W 080°38'0 0.0
2018-Apr-19 12:44N 28°25' W 080°38'0 0.0
2018-Apr-19 12:26N 28°25' W 080°38'0 0.0
2018-Apr-19 11:59N 28°25' W 080°38'0 0.0
2018-Apr-19 11:26N 28°25' W 080°38'0 0.0
2018-Apr-19 10:32N 28°25' W 080°38'0 0.6
2018-Apr-19 10:24N 28°25' W 080°38'2 4.6
2018-Apr-19 10:00N 28°25' W 080°36'611.2
2018-Apr-19 09:26N 28°21' W 080°30'4 8.3
2018-Apr-19 09:00N 28°19' W 080°26'10 8.7
2018-Apr-19 07:55N 28°13' W 080°18'4 9.9
2018-Apr-19 07:30N 28°10' W 080°15'5 9.8
2018-Apr-19 07:00N 28°07' W 080°10'5 9.7
2018-Apr-19 06:30N 28°04' W 080°06'5 9.7
2018-Apr-19 06:00N 28°01' W 080°02'510.6
2018-Apr-19 05:30N 27°57' W 079°57'610.8
2018-Apr-19 04:59N 27°54' W 079°52'511.0
2018-Apr-19 04:30N 27°50' W 079°48'611.2
2018-Apr-19 03:58N 27°46' W 079°43'15310.7
2018-Apr-18 13:41N 25°54' W 077°47'211.6
2018-Apr-18 13:29N 25°53' W 077°44'611.8
2018-Apr-18 12:59N 25°50' W 077°38'38 4.9
2018-Apr-18 05:22N 25°21' W 077°13'67 2.7
2018-Apr-17 04:28N 25°33' W 075°60'  
2018-Apr-14 20:29N 26°36' W 079°25'611.4
2018-Apr-14 19:59N 26°30' W 079°24'611.8
2018-Apr-14 19:29N 26°24' W 079°26'612.0
2018-Apr-14 18:59N 26°18' W 079°27'611.9
2018-Apr-14 18:31N 26°13' W 079°28'510.0
2018-Apr-14 18:00N 26°09' W 079°24'  
2018-Apr-11 17:57N 26°32' W 079°25'4 8.4
2018-Apr-11 17:27N 26°27' W 079°25'4 8.8
2018-Apr-11 17:00N 26°24' W 079°26'510.5
2018-Apr-11 16:29N 26°18' W 079°27'714.7
2018-Apr-11 16:00N 26°11' W 079°29'611.2
2018-Apr-11 15:29N 26°09' W 079°23'77 9.4
2018-Apr-11 07:13N 25°59' W 077°58'2 7.7
2018-Apr-11 07:00N 25°58' W 077°56'4 7.6
2018-Apr-11 06:29N 25°57' W 077°52'4 7.5
2018-Apr-11 06:00N 25°55' W 077°48'4 8.0
2018-Apr-11 05:30N 25°54' W 077°44'  

Dump ship's entire track history